الصفحة الرئيسية
METAR-TAF:

METAR-TAF

مطار :

كراكاس, فنزويلا

دائرة عرض: 10-36N, خط طول: 066-59W, ارتفاع: 43 متر

مراقبة الطقس الحالي

تاريخ ووقت الإصدار 1ساعة و 12 دقيقة قبل الساعة 12:00UTC
ريح 5 عقدة من الشرق
درجة الحرارة 27°درجة مئوية
الرطوبة 74%
ضغط 1013 hPa
الرؤية 10 كم أو أكثر
غيوم متفرقة على ارتفاع 1600 قدم

METAR: SVMI 271200Z 09005KT 9999 SCT016 27/22 Q1013

زمن: 09:12 (13:12 UTC)

توقعات

تاريخ ووقت الإصدار 15ساعات و 12 دقيقة قبل الساعة 22:00UTC
التوقعات صالحة من27 الساعة 00 UTC إلى 28 الساعة 00 UTC
ريح 7 عقدة من الغرب
الرؤية 10 كم أو أكثر
غيوم متفرقة على ارتفاع 1600 قدم
غيوم مفككة على ارتفاع 2000 قدم
أصبح
من 26 الساعة 02 UTC إلى 26 الساعة 06 UTC
ريح 9 عقدة من الغرب
الرؤية 10 كم أو أكثر
غيوم مفككة على ارتفاع 2000 قدم
رذاذ

TAF: SVMI 262200Z 2700/2800 27007KT 9999 SCT016 BKN020 TX27/17Z TN23/17Z BECMG 2602/2606 28009KT DZ 9999 BKN020

أرصاد الطقس والتوقعات من أكثر من 4000 مطار (تقارير الطقس للمطار METAR والتنبؤ بالطقس بالمطارTAF).

المحطات المتاحة هي النقط الصفراء والحمراء على الخريطة.

حرك المؤشر فوق النقطة لمعرفة اسم المحطة.

ثم انقر لمعرفة أرصاد وتوقعات الطقس.

لتغيير الخارطة: اضغط على الأزرار الخضراء مع رمز الصليب الأسود للتكبير. على الزر الأخضر مع شرطة للتصغير، أو على الأسهم الخضراء للخرائط المجاورة.


METAR-TAF: